Mount Vernon, KY

12:03 AM EDT on September 17, 2014 (GMT -0400)
Somerset-Pulaski County-Wilson | Change Station
CLOSE
Current Station
Airport
Location: Somerset,
Elevation: 928 ft
Nearby Weather Stations
Active Advisory: Special Statement

Elev 928 ft 37.05 °N, 84.62 °W | Updated 10 days ago

Partly Cloudy
Partly Cloudy
55 °F
Feels Like 55 °F
N
3
Wind Variable Wind from NNE
Gusts 3 mph

Today
High -- | Low -- °F
--% Chance of Precip.
Yesterday
High -- | Low -- °F
Precip. -- in
7:21 AM 7:41 PM
Last Quarter, 39% visible
Pressure 30.09 in
Visibility 1.5 miles
Clouds Scattered Clouds 1200 ft
Mostly Cloudy 2500 ft
Overcast 3100 ft
Dew Point 54 °F
Humidity 91%
Rainfall 0.26 in
Snow Depth Not available.
UV 3 out of 12
Pollen 6.00 out of 12
Air Quality Not available.
Flu Activity Not available.
METAR KSME 061815Z AUTO 06008G21KT 1 1/2SM +TSRA SCT012 BKN025 OVC031 22/20 A3009 RMK AO2 LTG DSNT ALQS P0026

More Conditions Fewer Conditions

Pressure 30.09 in
Visibility 1.5 miles
Clouds Scattered Clouds 1200 ft
Mostly Cloudy 2500 ft
Overcast 3100 ft
Dew Point 54 °F
Humidity 91%
Rainfall 0.26 in
Snow Depth Not available.
UV 3 out of 12
Pollen 6.00 out of 12
Air Quality Not available.
Flu Activity Not available.
METAR KSME 061815Z AUTO 06008G21KT 1 1/2SM +TSRA SCT012 BKN025 OVC031 22/20 A3009 RMK AO2 LTG DSNT ALQS P0026

More Conditions Fewer Conditions

10-Day Weather Forecast

Almanac

Astronomy

Sep. 17, 2014 Rise Set
Actual Time 7:21 AM EDT 7:41 PM EDT
Civil Twilight 6:54 AM EDT 8:07 PM EDT
Nautical Twilight 6:24 AM EDT 8:38 PM EDT
Astronomical Twilight 5:53 AM EDT 9:09 PM EDT
Moon 1:25 AM EDT 3:45 PM EDT
Length of Visible Light 13h 13m
Length of Day
12h 20m
Tomorrow will be 2m 22s shorter.
Last Quarter, 39% of the Moon is Illuminated
Today
Last Quarter
Sep 24
New
Oct 1
First Quarter
Oct 8
Full
Oct 15
Last Quarter

Yesterday's Extremes

State Highs State Lows

Community

WunderPhotos

Upload Photos

1,753,965 photos uploaded!

Nearby

Snow Depth

Station Depth Elevation
No new snow has been reported.

Earthquake Activity

City Distance Mag. Time & Date
No recent earthquake activity has been reported nearby.
Minimum magnitude displayed is 2.5.

Coastal Water Temperatures

Place Temperature
No Stations Reporting

Nearby Weather Stations